Time;durP1;ratioP1;P1;durP2;ratioP2;P2;SDS_P1;SDS_P2;PMS_P1;PMS_P2;Temp;Humidity;BMP_temperature;BMP_pressure;BME280_temperature;BME280_humidity;BME280_pressure;Samples;Min_cycle;Max_cycle;Signal;HPM_P1;HPM_P2
2022/08/12 00:44:54;;;;;;;13.23;11.90;;;17.70;99.90;;;;;;5062134;28;20064;-74
2022/08/12 00:47:20;;;;;;;18.00;12.93;;;17.70;99.90;;;;;;5062929;28;20049;-75
2022/08/12 00:49:48;;;;;;;23.73;14.50;;;17.70;99.90;;;;;;5064395;28;20622;-74
2022/08/12 00:52:15;;;;;;;15.07;11.63;;;17.70;99.90;;;;;;5062348;28;20127;-74
2022/08/12 00:54:50;;;;;;;15.75;12.80;;;17.70;99.90;;;;;;5034030;28;20534;-76
2022/08/12 00:57:28;;;;;;;14.20;12.90;;;17.60;99.90;;;;;;5046663;28;20037;-75
2022/08/12 01:00:11;;;;;;;12.95;11.65;;;17.70;99.90;;;;;;5044296;28;20842;-75
2022/08/12 01:02:40;;;;;;;13.48;12.20;;;17.60;99.90;;;;;;5062405;28;20414;-74
2022/08/12 01:13:26;;;;;;;13.40;12.10;;;17.60;99.90;;;;;;5061876;28;20094;-74
2022/08/12 01:15:58;;;;;;;16.70;12.73;;;17.50;99.90;;;;;;5060300;28;20449;-74
2022/08/12 01:18:26;;;;;;;15.18;13.73;;;17.50;99.90;;;;;;5062300;28;20041;-72
2022/08/12 01:21:02;;;;;;;14.52;13.02;;;17.60;99.90;;;;;;5064325;28;20048;-73
2022/08/12 01:23:45;;;;;;;13.73;11.77;;;17.70;99.90;;;;;;5027773;28;20510;-75
2022/08/12 01:26:19;;;;;;;14.32;11.05;;;17.50;99.90;;;;;;5063891;28;20452;-74
2022/08/12 01:28:47;;;;;;;13.95;12.02;;;17.40;99.90;;;;;;5061247;28;20033;-74
2022/08/12 01:31:15;;;;;;;14.50;13.02;;;17.40;99.90;;;;;;5056015;28;20040;-73
2022/08/12 01:34:06;;;;;;;13.27;11.27;;;17.50;99.90;;;;;;5063876;28;20042;-74
2022/08/12 01:36:53;;;;;;;14.02;11.90;;;17.40;99.90;;;;;;5060553;28;20036;-74
2022/08/12 01:39:27;;;;;;;12.82;11.35;;;17.30;99.90;;;;;;5064219;28;20044;-74
2022/08/12 01:41:55;;;;;;;13.02;10.20;;;17.40;99.90;;;;;;5028138;28;20127;-74
2022/08/12 01:44:23;;;;;;;15.48;11.80;;;17.40;99.90;;;;;;5065979;28;20533;-74
2022/08/12 01:47:02;;;;;;;13.85;11.88;;;17.40;99.90;;;;;;5047160;28;20087;-76
2022/08/12 01:50:04;;;;;;;13.83;11.40;;;17.40;99.90;;;;;;5048854;28;20127;-74
2022/08/12 01:52:39;;;;;;;13.18;10.27;;;17.40;99.90;;;;;;5065631;28;20041;-74
2022/08/12 01:55:06;;;;;;;12.45;11.15;;;17.30;99.90;;;;;;5044087;28;20052;-74
2022/08/12 01:57:43;;;;;;;14.70;9.90;;;17.40;99.90;;;;;;5064537;28;20059;-74
2022/08/12 02:00:12;;;;;;;10.68;9.18;;;17.40;99.90;;;;;;5049898;28;20052;-74
2022/08/12 02:03:00;;;;;;;12.40;10.00;;;17.30;99.90;;;;;;5065429;28;20044;-73
2022/08/12 02:11:28;;;;;;;11.35;9.32;;;17.20;99.90;;;;;;5069032;28;20127;-73
2022/08/12 02:14:09;;;;;;;10.20;9.13;;;17.30;99.90;;;;;;5061167;28;20048;-74
2022/08/12 02:16:44;;;;;;;9.20;8.13;;;17.30;99.90;;;;;;5064764;28;20119;-74
2022/08/12 02:19:26;;;;;;;11.95;8.10;;;17.30;99.90;;;;;;5064503;28;20527;-74
2022/08/12 02:22:24;;;;;;;13.40;8.77;;;17.40;99.90;;;;;;5045993;28;20676;-75
2022/08/12 02:24:55;;;;;;;11.40;9.05;;;17.20;99.90;;;;;;5064703;28;20045;-74
2022/08/12 02:27:23;;;;;;;9.18;8.05;;;17.30;99.90;;;;;;5065700;28;20655;-74
2022/08/12 02:29:49;;;;;;;10.60;7.97;;;17.20;99.90;;;;;;5066334;28;20048;-77
2022/08/12 02:32:15;;;;;;;16.35;8.52;;;17.40;99.90;;;;;;5067115;28;20740;-75
2022/08/12 02:34:43;;;;;;;9.13;7.70;;;17.30;99.90;;;;;;5028244;28;20045;-74
2022/08/12 02:37:14;;;;;;;10.30;8.02;;;17.20;99.90;;;;;;5044614;28;20040;-75
2022/08/12 02:39:46;;;;;;;9.07;7.75;;;17.30;99.90;;;;;;5065467;28;20040;-74
2022/08/12 02:42:15;;;;;;;14.00;9.38;;;17.20;99.90;;;;;;5046895;28;20098;-74
2022/08/12 02:44:44;;;;;;;11.30;8.13;;;17.20;99.90;;;;;;5052482;28;20277;-74
2022/08/12 02:47:10;;;;;;;13.90;8.20;;;17.00;99.90;;;;;;5066108;28;20120;-74
2022/08/12 02:49:45;;;;;;;12.13;8.32;;;17.10;99.90;;;;;;5065470;28;20045;-73
2022/08/12 02:52:13;;;;;;;13.23;8.70;;;17.10;99.90;;;;;;5063038;28;20049;-74
2022/08/12 02:54:42;;;;;;;10.32;8.55;;;16.90;99.90;;;;;;5063239;28;20123;-75
2022/08/12 02:57:11;;;;;;;11.03;9.30;;;16.90;99.90;;;;;;5047896;28;20044;-73
2022/08/12 02:59:40;;;;;;;9.40;8.35;;;17.00;99.90;;;;;;5024808;28;20048;-74
2022/08/12 03:02:10;;;;;;;12.80;9.40;;;16.90;99.90;;;;;;5044356;28;20079;-74
2022/08/12 03:04:48;;;;;;;12.20;9.05;;;16.80;99.90;;;;;;5060557;28;20043;-75
2022/08/12 03:07:20;;;;;;;9.65;8.70;;;16.80;99.90;;;;;;5050073;28;20052;-75
2022/08/12 03:10:00;;;;;;;14.05;9.25;;;16.80;99.90;;;;;;5065842;28;20092;-74
2022/08/12 03:12:29;;;;;;;10.10;7.72;;;16.90;99.90;;;;;;5040175;28;20060;-75
2022/08/12 03:14:57;;;;;;;9.68;8.45;;;16.70;99.90;;;;;;5040226;28;20110;-76
2022/08/12 03:17:33;;;;;;;12.88;9.57;;;16.80;99.90;;;;;;5065113;28;20068;-75
2022/08/12 03:20:00;;;;;;;11.07;8.50;;;16.90;99.90;;;;;;5063908;28;20089;-75
2022/08/12 03:22:30;;;;;;;14.68;8.93;;;16.70;99.90;;;;;;5065672;28;20055;-75
2022/08/12 03:25:00;;;;;;;15.03;9.80;;;16.70;99.90;;;;;;5054975;28;20501;-76
2022/08/12 03:27:29;;;;;;;12.40;8.75;;;16.70;99.90;;;;;;5066245;28;20040;-76
2022/08/12 03:29:56;;;;;;;11.75;8.85;;;16.70;99.90;;;;;;5045790;28;20040;-76
2022/08/12 03:32:25;;;;;;;10.52;8.85;;;16.80;99.90;;;;;;5064797;28;20071;-75
2022/08/12 03:34:54;;;;;;;9.38;8.38;;;16.80;99.90;;;;;;5037108;28;20048;-76
2022/08/12 03:37:20;;;;;;;10.15;8.25;;;16.70;99.90;;;;;;5047872;28;20052;-75
2022/08/12 03:39:46;;;;;;;18.70;9.07;;;16.70;99.90;;;;;;5065535;28;20036;-75
2022/08/12 03:42:26;;;;;;;12.35;8.75;;;16.60;99.90;;;;;;5041094;28;20063;-76
2022/08/12 04:01:56;;;;;;;15.38;9.88;;;16.50;99.90;;;;;;5057237;28;20462;-76
2022/08/12 04:04:33;;;;;;;9.35;8.43;;;16.40;99.90;;;;;;5060505;28;20051;-76
2022/08/12 04:07:08;;;;;;;13.13;8.77;;;16.40;99.90;;;;;;5064958;28;20119;-77
2022/08/12 04:09:38;;;;;;;11.57;9.70;;;16.40;99.90;;;;;;5046049;28;20036;-76
2022/08/12 04:14:50;;;;;;;14.88;9.60;;;16.30;99.90;;;;;;5059318;28;20503;-76
2022/08/12 04:17:17;;;;;;;10.88;9.57;;;16.30;99.90;;;;;;5064846;28;20044;-77
2022/08/12 04:19:43;;;;;;;10.25;9.15;;;16.10;99.90;;;;;;5062684;28;20032;-76
2022/08/12 04:22:11;;;;;;;11.05;9.85;;;16.20;99.90;;;;;;5060629;28;20207;-76
2022/08/12 04:24:39;;;;;;;11.23;9.77;;;16.20;99.90;;;;;;5064843;28;20392;-76
2022/08/12 04:27:07;;;;;;;11.00;9.02;;;16.20;99.90;;;;;;5062795;28;20469;-76
2022/08/12 04:29:34;;;;;;;11.07;9.98;;;16.40;99.90;;;;;;5055099;28;20129;-75
2022/08/12 04:32:00;;;;;;;13.38;9.82;;;16.20;99.90;;;;;;5060398;28;20123;-76
2022/08/12 04:34:27;;;;;;;12.63;9.48;;;16.30;99.90;;;;;;5064032;28;20079;-76
2022/08/12 04:36:52;;;;;;;13.90;9.95;;;16.10;99.90;;;;;;5041186;28;20045;-75
2022/08/12 04:39:20;;;;;;;14.32;10.60;;;16.20;99.90;;;;;;5064452;28;20047;-76
2022/08/12 04:41:48;;;;;;;12.45;9.27;;;16.20;99.90;;;;;;5060496;28;20128;-75
2022/08/12 04:44:14;;;;;;;13.48;10.52;;;16.30;99.90;;;;;;5058572;28;20048;-76
2022/08/12 04:46:41;;;;;;;11.02;9.88;;;16.10;99.90;;;;;;5060181;28;20384;-75
2022/08/12 04:49:07;;;;;;;11.77;9.10;;;16.20;99.90;;;;;;5061311;28;20044;-75
2022/08/12 04:51:34;;;;;;;13.32;9.25;;;16.30;99.90;;;;;;5061064;28;20036;-75
2022/08/12 04:54:01;;;;;;;11.30;10.13;;;16.10;99.90;;;;;;5041787;28;20045;-75
2022/08/12 04:56:28;;;;;;;10.48;9.48;;;16.30;99.90;;;;;;5038844;28;20040;-75
2022/08/12 04:58:57;;;;;;;11.88;9.32;;;16.20;99.90;;;;;;5064020;28;20045;-76
2022/08/12 05:01:28;;;;;;;10.50;9.48;;;16.50;99.90;;;;;;5058988;28;20513;-75
2022/08/12 05:03:56;;;;;;;11.80;8.73;;;16.70;99.90;;;;;;5044772;28;20131;-75
2022/08/12 05:06:23;;;;;;;10.93;9.52;;;16.60;99.90;;;;;;5051984;28;20199;-75
2022/08/12 05:08:49;;;;;;;11.45;9.77;;;16.60;99.90;;;;;;5064498;28;20451;-75
2022/08/12 05:11:15;;;;;;;12.25;8.15;;;16.60;99.90;;;;;;5044211;28;20087;-75
2022/08/12 05:13:43;;;;;;;9.10;8.07;;;16.70;99.90;;;;;;5062531;28;20048;-76
2022/08/12 05:16:09;;;;;;;11.23;9.88;;;16.70;99.90;;;;;;5058924;28;20053;-74
2022/08/12 05:18:37;;;;;;;13.27;9.30;;;16.80;99.90;;;;;;5068176;28;20410;-75
2022/08/12 05:21:04;;;;;;;10.40;9.35;;;16.90;99.90;;;;;;5061357;28;20054;-76
2022/08/12 05:23:30;;;;;;;9.77;8.82;;;16.90;99.90;;;;;;5067181;28;20483;-75
2022/08/12 05:25:57;;;;;;;10.40;9.35;;;16.90;99.90;;;;;;5067434;28;20053;-75
2022/08/12 05:28:25;;;;;;;12.05;10.10;;;16.90;99.90;;;;;;5067509;28;22526;-74
2022/08/12 05:30:52;;;;;;;9.40;8.40;;;17.00;99.90;;;;;;5045703;28;20076;-74
2022/08/12 05:33:17;;;;;;;15.82;11.00;;;17.00;99.90;;;;;;5065742;28;20040;-73
2022/08/12 05:35:46;;;;;;;23.05;9.95;;;17.10;99.90;;;;;;5064606;28;20029;-73
2022/08/12 05:41:04;;;;;;;;;;;17.30;99.90;;;;;;5048039;28;20040;-73
2022/08/12 05:43:32;;;;;;;10.38;8.45;;;17.20;99.90;;;;;;5056554;28;19926;-72
2022/08/12 05:45:58;;;;;;;9.60;7.70;;;17.30;99.90;;;;;;5067271;28;20055;-73
2022/08/12 05:48:23;;;;;;;10.50;8.00;;;17.40;99.90;;;;;;5046319;28;20040;-74
2022/08/12 05:50:49;;;;;;;17.10;7.82;;;17.60;99.90;;;;;;5065579;28;20037;-75
2022/08/12 05:53:15;;;;;;;10.80;7.45;;;17.60;99.90;;;;;;5067301;28;20429;-73
2022/08/12 05:55:40;;;;;;;9.25;6.95;;;17.80;99.90;;;;;;5068408;28;20502;-73
2022/08/12 05:58:06;;;;;;;7.78;6.97;;;17.80;99.90;;;;;;5047542;28;20040;-73
2022/08/12 06:00:33;;;;;;;15.90;8.60;;;17.90;99.90;;;;;;5052307;28;20061;-73
2022/08/12 06:03:03;;;;;;;11.02;6.72;;;17.90;99.90;;;;;;5066164;28;20041;-73
2022/08/12 06:05:34;;;;;;;7.55;6.80;;;18.10;99.90;;;;;;5064716;28;20047;-73
2022/08/12 06:08:02;;;;;;;9.23;6.43;;;18.10;99.90;;;;;;5064842;28;20075;-72
2022/08/12 06:10:29;;;;;;;10.88;7.78;;;18.20;99.90;;;;;;5068006;28;20119;-73
2022/08/12 06:12:56;;;;;;;11.35;6.45;;;18.30;99.90;;;;;;5057497;28;20053;-72
2022/08/12 06:15:21;;;;;;;10.07;6.90;;;18.40;99.90;;;;;;5022418;28;20131;-78
2022/08/12 06:17:47;;;;;;;6.75;6.05;;;18.50;99.90;;;;;;5046826;28;20108;-76
2022/08/12 06:20:14;;;;;;;13.13;6.40;;;18.60;99.90;;;;;;5064797;28;20036;-77
2022/08/12 06:22:41;;;;;;;7.57;6.57;;;18.60;99.90;;;;;;5063173;28;20390;-78
2022/08/12 06:25:07;;;;;;;5.75;5.25;;;18.70;99.90;;;;;;5064962;28;20074;-76
2022/08/12 06:27:41;;;;;;;8.95;5.20;;;18.80;99.90;;;;;;5028498;28;20045;-76
2022/08/12 06:30:08;;;;;;;6.82;5.60;;;18.80;99.90;;;;;;5065317;28;20560;-77
2022/08/12 06:32:35;;;;;;;10.15;5.45;;;19.00;99.90;;;;;;5036929;28;20047;-76
2022/08/12 06:35:00;;;;;;;6.90;5.38;;;19.00;99.90;;;;;;5030501;28;20141;-75
2022/08/12 06:37:26;;;;;;;6.40;5.18;;;19.10;99.90;;;;;;5066242;28;20443;-76
2022/08/12 06:39:52;;;;;;;9.38;4.93;;;19.10;99.90;;;;;;5049106;28;20174;-76
2022/08/12 06:45:02;;;;;;;8.07;5.65;;;19.30;99.90;;;;;;5065808;28;20044;-75
2022/08/12 06:47:27;;;;;;;7.57;5.30;;;19.40;99.90;;;;;;5048522;28;20044;-76
2022/08/12 06:49:53;;;;;;;7.10;4.40;;;19.40;99.90;;;;;;5066865;28;20072;-75
2022/08/12 06:52:23;;;;;;;5.30;4.35;;;19.60;99.90;;;;;;5037438;28;20037;-76
2022/08/12 06:54:48;;;;;;;14.15;5.65;;;19.70;99.90;;;;;;5029995;28;20052;-76
2022/08/12 06:57:15;;;;;;;4.85;4.30;;;19.80;99.90;;;;;;5013512;28;20487;-75
2022/08/12 06:59:41;;;;;;;9.05;4.50;;;20.00;99.90;;;;;;5064426;28;20052;-76
2022/08/12 07:02:07;;;;;;;5.78;4.47;;;20.00;99.90;;;;;;5037141;28;20455;-75
2022/08/12 07:04:34;;;;;;;9.27;4.03;;;20.10;99.90;;;;;;5042529;28;20402;-76
2022/08/12 07:07:00;;;;;;;8.00;3.78;;;20.30;99.90;;;;;;5050245;28;20123;-75
2022/08/12 07:09:26;;;;;;;10.23;4.57;;;20.60;99.90;;;;;;5046672;28;20087;-75
2022/08/12 07:11:52;;;;;;;5.97;4.00;;;21.30;99.90;;;;;;5047402;28;20037;-76
2022/08/12 07:14:18;;;;;;;9.07;4.05;;;21.80;99.90;;;;;;5059906;28;20044;-75
2022/08/12 07:17:00;;;;;;;6.47;3.55;;;23.00;99.90;;;;;;5066527;28;20136;-75
2022/08/12 07:19:26;;;;;;;7.30;4.20;;;23.60;99.90;;;;;;5049021;28;20044;-75
2022/08/12 07:21:52;;;;;;;5.28;3.25;;;24.70;99.90;;;;;;5048711;28;20055;-75
2022/08/12 07:24:18;;;;;;;6.68;2.80;;;24.60;99.90;;;;;;5017399;28;20052;-77
2022/08/12 07:26:43;;;;;;;8.45;3.40;;;24.80;99.90;;;;;;5041365;28;20428;-76
2022/08/12 07:29:10;;;;;;;5.57;2.55;;;25.10;99.90;;;;;;5047810;28;20040;-75
2022/08/12 07:31:36;;;;;;;9.63;3.35;;;24.60;99.90;;;;;;5046952;28;20068;-76
2022/08/12 07:34:03;;;;;;;6.85;3.65;;;23.70;99.90;;;;;;5065461;28;20051;-76
2022/08/12 07:36:28;;;;;;;11.98;3.67;;;22.70;99.90;;;;;;5065700;28;20166;-76
2022/08/12 07:38:54;;;;;;;8.25;3.22;;;22.60;99.90;;;;;;5065153;28;20132;-77
2022/08/12 07:41:24;;;;;;;8.77;3.25;;;22.70;99.90;;;;;;5043974;28;20041;-77
2022/08/12 07:43:55;;;;;;;8.73;2.72;;;22.80;99.90;;;;;;5054695;28;20052;-77
2022/08/12 07:46:24;;;;;;;4.07;2.53;;;22.70;99.90;;;;;;5047128;28;20052;-77
2022/08/12 07:48:53;;;;;;;3.92;2.30;;;22.70;99.90;;;;;;5047776;28;20044;-77
2022/08/12 07:51:21;;;;;;;8.48;2.67;;;22.70;99.90;;;;;;5065809;28;20246;-77
2022/08/12 07:53:47;;;;;;;4.85;2.85;;;22.70;99.90;;;;;;5036111;28;20044;-76
2022/08/12 07:56:14;;;;;;;11.40;2.30;;;22.80;99.90;;;;;;5040700;28;20119;-76
2022/08/12 07:58:40;;;;;;;6.60;2.83;;;23.00;99.90;;;;;;5048946;28;20062;-77
2022/08/12 08:01:14;;;;;;;5.80;2.17;;;23.20;99.90;;;;;;5062953;28;20041;-76
2022/08/12 08:04:54;;;;;;;7.13;2.88;;;23.20;99.90;;;;;;5055963;28;20112;-76
2022/08/12 08:06:30;;;;;;;5.30;2.60;;;23.40;99.90;;;;;;5066022;28;20167;-77
2022/08/12 08:08:58;;;;;;;4.95;2.58;;;23.60;99.90;;;;;;5065620;28;20122;-77
2022/08/12 08:14:09;;;;;;;4.80;2.75;;;23.70;99.90;;;;;;5046610;28;20447;-77
2022/08/12 08:16:36;;;;;;;4.88;2.63;;;23.90;99.90;;;;;;5065085;28;20695;-77
2022/08/12 08:19:03;;;;;;;2.92;2.10;;;24.00;99.90;;;;;;5047794;28;20055;-76
2022/08/12 08:21:32;;;;;;;5.07;2.38;;;24.10;99.90;;;;;;5066105;28;20032;-76
2022/08/12 08:24:13;;;;;;;8.48;3.22;;;24.20;99.90;;;;;;5047181;28;20044;-76
2022/08/12 08:26:40;;;;;;;6.15;2.47;;;24.40;99.90;;;;;;5046047;28;20056;-77
2022/08/12 08:29:11;;;;;;;4.25;2.50;;;24.50;99.90;;;;;;5045879;28;20056;-76
2022/08/12 08:31:42;;;;;;;3.45;2.20;;;24.60;99.90;;;;;;5053795;28;20082;-76
2022/08/12 08:34:11;;;;;;;4.25;2.40;;;24.80;99.90;;;;;;5064287;28;20044;-76
2022/08/12 08:36:38;;;;;;;6.15;2.35;;;25.00;99.90;;;;;;5065289;28;20498;-76
2022/08/12 08:39:05;;;;;;;4.57;2.20;;;25.10;99.90;;;;;;5046114;28;20380;-76
2022/08/12 08:44:15;;;;;;;8.60;2.05;;;25.50;99.90;;;;;;5065139;28;20056;-75
2022/08/12 08:46:43;;;;;;;6.68;2.10;;;25.70;99.90;;;;;;5064214;28;20052;-76
2022/08/12 08:49:10;;;;;;;11.23;2.42;;;25.50;99.90;;;;;;5064777;28;20049;-76
2022/08/12 08:51:37;;;;;;;4.72;1.88;;;25.60;99.90;;;;;;5063535;28;20053;-77
2022/08/12 08:54:05;;;;;;;5.72;1.98;;;25.80;99.90;;;;;;5043501;28;20388;-76
2022/08/12 08:56:32;;;;;;;8.70;2.05;;;25.70;99.90;;;;;;5046977;28;20059;-76
2022/08/12 08:58:57;;;;;;;6.10;2.05;;;25.90;99.90;;;;;;5064889;28;20060;-76
2022/08/12 09:01:26;;;;;;;9.40;1.75;;;26.00;99.90;;;;;;5057274;28;20483;-77
2022/08/12 09:03:52;;;;;;;4.38;2.10;;;26.10;99.90;;;;;;5054715;28;20057;-77
2022/08/12 09:06:19;;;;;;;4.50;2.35;;;26.30;99.90;;;;;;5065821;28;20040;-77
2022/08/12 09:08:45;;;;;;;5.85;2.38;;;26.30;99.90;;;;;;5065297;28;20037;-75
2022/08/12 09:13:55;;;;;;;12.73;2.35;;;26.50;99.90;;;;;;5046666;28;20044;-76
2022/08/12 09:16:20;;;;;;;1.88;1.63;;;26.50;99.90;;;;;;5046116;28;20051;-76
2022/08/12 09:18:47;;;;;;;5.97;1.63;;;26.70;99.90;;;;;;5064382;28;20480;-77
2022/08/12 09:21:13;;;;;;;6.53;1.95;;;26.80;99.90;;;;;;5046500;28;20048;-75
2022/08/12 09:23:40;;;;;;;6.55;2.75;;;26.90;99.90;;;;;;5045018;28;20037;-75
2022/08/12 09:26:08;;;;;;;2.45;1.70;;;27.00;99.90;;;;;;5064690;28;20052;-76
2022/08/12 09:28:34;;;;;;;10.20;2.28;;;26.90;99.90;;;;;;5064792;28;20033;-76
2022/08/12 09:31:00;;;;;;;5.72;1.80;;;27.00;99.90;;;;;;5039855;28;20054;-76
2022/08/12 09:33:32;;;;;;;2.45;1.52;;;27.10;99.90;;;;;;5061508;28;20040;-77
2022/08/12 09:35:58;;;;;;;4.75;2.47;;;27.30;99.90;;;;;;5046140;28;20048;-77
2022/08/12 09:38:25;;;;;;;7.57;1.95;;;27.30;99.90;;;;;;5064766;28;20048;-75
2022/08/12 09:40:51;;;;;;;4.53;1.95;;;27.30;99.90;;;;;;5046078;28;20106;-76
2022/08/12 09:46:01;;;;;;;3.20;2.17;;;27.60;99.90;;;;;;5061957;28;20087;-76
2022/08/12 09:48:28;;;;;;;4.72;2.20;;;27.60;99.90;;;;;;5046476;28;20105;-76
2022/08/12 09:50:54;;;;;;;5.00;2.08;;;27.60;99.90;;;;;;5064164;28;20072;-76
2022/08/12 09:53:23;;;;;;;3.65;2.25;;;27.50;99.90;;;;;;5064497;28;20071;-76
2022/08/12 09:55:56;;;;;;;4.50;2.17;;;27.80;99.90;;;;;;5061680;28;20052;-76
2022/08/12 09:58:30;;;;;;;4.38;1.50;;;27.80;99.90;;;;;;5059232;28;20037;-76
2022/08/12 10:01:03;;;;;;;4.80;1.70;;;28.00;99.90;;;;;;5062885;28;20053;-77
2022/08/12 10:03:31;;;;;;;2.17;1.98;;;27.90;99.90;;;;;;5066010;28;20036;-77
2022/08/12 10:05:58;;;;;;;2.45;1.80;;;28.00;99.90;;;;;;5067125;28;20048;-77
2022/08/12 10:08:31;;;;;;;5.75;1.95;;;28.00;99.90;;;;;;5067939;28;20457;-76
2022/08/12 10:13:45;;;;;;;4.07;2.10;;;28.00;99.90;;;;;;5068536;28;20578;-75
2022/08/12 10:16:27;;;;;;;7.13;2.33;;;28.10;99.90;;;;;;5066515;28;20044;-76
2022/08/12 10:19:06;;;;;;;4.45;2.25;;;28.40;99.90;;;;;;5049667;28;20048;-76
2022/08/12 10:21:38;;;;;;;9.50;2.30;;;28.30;99.90;;;;;;5049570;28;20546;-76
2022/08/12 10:24:09;;;;;;;10.75;2.53;;;28.40;99.90;;;;;;5033562;28;20073;-75
2022/08/12 10:32:22;;;;;;;5.65;2.20;;;28.70;99.90;;;;;;5048517;28;20053;-76
2022/08/12 10:34:51;;;;;;;3.55;2.33;;;28.70;99.90;;;;;;5033125;28;20137;-76
2022/08/12 10:37:17;;;;;;;14.97;2.43;;;28.60;99.90;;;;;;5067831;28;20093;-75
2022/08/12 10:39:44;;;;;;;5.53;1.83;;;28.50;99.90;;;;;;5066007;28;20078;-76
2022/08/12 10:45:07;;;;;;;7.15;2.45;;;28.60;99.90;;;;;;5048758;28;20060;-77
2022/08/12 10:47:35;;;;;;;9.05;1.80;;;28.60;99.90;;;;;;5064741;28;20090;-75
2022/08/12 10:50:04;;;;;;;3.85;1.80;;;28.80;99.90;;;;;;5046743;28;20040;-75
2022/08/12 10:52:31;;;;;;;4.63;1.83;;;28.80;99.80;;;;;;5052382;28;20056;-76
2022/08/12 10:54:58;;;;;;;6.68;1.90;;;28.90;99.90;;;;;;5047237;28;20048;-77
2022/08/12 10:57:25;;;;;;;6.15;1.90;;;29.00;99.90;;;;;;5056663;28;20052;-77
2022/08/12 10:59:55;;;;;;;7.68;2.50;;;28.90;99.90;;;;;;5061191;28;20419;-77
2022/08/12 11:02:23;;;;;;;5.85;2.20;;;29.00;99.80;;;;;;5047386;28;20036;-77
2022/08/12 11:04:49;;;;;;;4.20;1.50;;;29.20;98.80;;;;;;5048572;28;20052;-79
2022/08/12 11:07:16;;;;;;;3.50;1.42;;;29.20;99.20;;;;;;5067183;28;20368;-76
2022/08/12 11:09:42;;;;;;;3.08;1.90;;;29.10;99.40;;;;;;5066102;28;20442;-77
2022/08/12 11:12:08;;;;;;;3.47;1.70;;;29.20;99.20;;;;;;5065149;28;20045;-78
2022/08/12 11:14:36;;;;;;;8.70;2.22;;;29.40;99.20;;;;;;5065927;28;20372;-76
2022/08/12 11:17:06;;;;;;;4.28;1.80;;;29.20;98.30;;;;;;5030601;28;20036;-77
2022/08/12 11:19:33;;;;;;;3.00;2.40;;;29.20;98.50;;;;;;5066418;28;20562;-78
2022/08/12 11:21:59;;;;;;;4.50;1.90;;;29.30;99.20;;;;;;5064717;28;20036;-77
2022/08/12 11:24:26;;;;;;;2.60;1.52;;;29.20;98.40;;;;;;5063408;28;20044;-77
2022/08/12 11:26:52;;;;;;;3.63;1.90;;;29.10;97.60;;;;;;5023398;28;20136;-77
2022/08/12 11:29:19;;;;;;;3.88;1.65;;;29.20;98.10;;;;;;5028804;28;20041;-77
2022/08/12 11:31:45;;;;;;;8.45;2.30;;;29.40;98.60;;;;;;5045621;28;20053;-77
2022/08/12 11:34:11;;;;;;;3.80;2.67;;;29.40;98.40;;;;;;5054138;28;20049;-77
2022/08/12 11:36:37;;;;;;;2.63;1.40;;;29.50;98.60;;;;;;5046124;28;20072;-78
2022/08/12 11:39:03;;;;;;;4.97;2.22;;;29.50;99.10;;;;;;5042602;28;20048;-76
2022/08/12 11:41:29;;;;;;;5.10;2.63;;;29.50;98.10;;;;;;5047782;28;20063;-78
2022/08/12 11:43:55;;;;;;;4.70;1.92;;;29.50;97.80;;;;;;5065329;28;20048;-77
2022/08/12 11:46:20;;;;;;;4.47;2.25;;;29.70;98.20;;;;;;5064378;28;20054;-76
2022/08/12 11:48:46;;;;;;;6.80;2.47;;;29.60;98.00;;;;;;5066409;28;20033;-77
2022/08/12 11:51:12;;;;;;;5.10;1.52;;;29.40;98.00;;;;;;5047654;28;20116;-77
2022/08/12 11:53:37;;;;;;;5.10;2.08;;;29.60;97.40;;;;;;5065395;28;20489;-76
2022/08/12 11:56:06;;;;;;;8.65;1.90;;;29.60;97.00;;;;;;5064589;28;20044;-77
2022/08/12 11:58:33;;;;;;;4.88;1.83;;;29.80;96.70;;;;;;5047468;28;20044;-77
2022/08/12 12:00:58;;;;;;;7.00;1.77;;;29.90;97.20;;;;;;5063979;28;20158;-77
2022/08/12 12:03:25;;;;;;;5.25;2.00;;;30.00;96.30;;;;;;5066100;28;20048;-77
2022/08/12 12:05:50;;;;;;;3.63;1.75;;;29.80;97.10;;;;;;5065954;28;20040;-77
2022/08/12 12:08:23;;;;;;;2.50;1.85;;;30.00;97.00;;;;;;5059879;28;20571;-77
2022/08/12 12:10:50;;;;;;;3.80;1.40;;;29.80;96.10;;;;;;5047767;28;20040;-77
2022/08/12 12:13:16;;;;;;;5.28;1.65;;;29.70;95.60;;;;;;5065883;28;20043;-77
2022/08/12 12:15:43;;;;;;;7.25;1.73;;;29.70;95.90;;;;;;5064705;28;20091;-76
2022/08/12 12:18:20;;;;;;;1.75;1.42;;;29.90;96.20;;;;;;5046091;28;20047;-78
2022/08/12 12:20:46;;;;;;;4.80;1.88;;;29.80;96.00;;;;;;5065285;28;20164;-77
2022/08/12 12:23:11;;;;;;;1.83;1.63;;;29.70;95.90;;;;;;5064700;28;20157;-77
2022/08/12 12:25:37;;;;;;;7.93;1.15;;;29.80;96.20;;;;;;5046978;28;20044;-77
2022/08/12 12:28:03;;;;;;;7.60;2.80;;;29.90;95.70;;;;;;5029995;28;20414;-76
2022/08/12 12:30:29;;;;;;;3.30;2.22;;;29.70;94.90;;;;;;5050300;28;20072;-77
2022/08/12 12:32:55;;;;;;;10.50;2.60;;;29.90;95.80;;;;;;5010368;28;20563;-78
2022/08/12 12:35:21;;;;;;;4.90;1.60;;;30.00;95.30;;;;;;5027271;28;20044;-77
2022/08/12 12:37:54;;;;;;;2.90;1.35;;;30.10;95.30;;;;;;5057637;28;20407;-77
2022/08/12 12:40:21;;;;;;;3.83;1.63;;;30.10;95.60;;;;;;5046909;28;20047;-78
2022/08/12 12:42:46;;;;;;;4.88;1.85;;;30.20;95.30;;;;;;5065387;28;20053;-77
2022/08/12 12:45:13;;;;;;;5.25;1.95;;;30.20;95.60;;;;;;5063841;28;20105;-76
2022/08/12 12:47:52;;;;;;;2.58;1.50;;;30.20;95.70;;;;;;5065138;28;20055;-77
2022/08/12 12:50:18;;;;;;;2.47;1.52;;;30.10;95.00;;;;;;5030450;28;20044;-76
2022/08/12 12:52:43;;;;;;;2.85;1.60;;;30.00;94.80;;;;;;5064574;28;20760;-77
2022/08/12 12:55:09;;;;;;;5.45;1.48;;;30.00;95.10;;;;;;5064075;28;20043;-76
2022/08/12 12:57:41;;;;;;;3.40;1.50;;;30.10;94.00;;;;;;5064517;28;20411;-76
2022/08/12 13:00:14;;;;;;;4.80;1.58;;;30.30;94.80;;;;;;5061984;28;20033;-76
2022/08/12 13:02:44;;;;;;;1.45;1.35;;;30.40;95.40;;;;;;5063964;28;20127;-76
2022/08/12 13:05:11;;;;;;;6.13;1.63;;;30.30;94.90;;;;;;5046548;28;20037;-77
2022/08/12 13:07:41;;;;;;;3.05;1.40;;;30.20;94.90;;;;;;5047119;28;20430;-77
2022/08/12 13:10:08;;;;;;;2.05;1.63;;;30.10;94.90;;;;;;5064580;28;20091;-77
2022/08/12 13:12:34;;;;;;;4.13;1.80;;;30.20;94.90;;;;;;5042533;28;20048;-77
2022/08/12 13:15:02;;;;;;;2.38;2.03;;;30.40;95.40;;;;;;5043685;28;20040;-76
2022/08/12 13:17:31;;;;;;;2.88;1.40;;;30.20;94.50;;;;;;5061176;28;20470;-77
2022/08/12 13:20:03;;;;;;;2.35;1.65;;;30.30;95.20;;;;;;5064511;28;20056;-77
2022/08/12 13:22:29;;;;;;;2.30;1.40;;;30.40;95.40;;;;;;5064846;28;20086;-77
2022/08/12 13:24:55;;;;;;;9.68;1.42;;;30.50;95.40;;;;;;5058791;28;20080;-77
2022/08/12 13:27:22;;;;;;;5.57;2.17;;;30.20;93.70;;;;;;5026994;28;20049;-76
2022/08/12 13:29:47;;;;;;;1.85;1.58;;;30.30;93.90;;;;;;5044236;28;20087;-77
2022/08/12 13:32:13;;;;;;;8.10;3.15;;;30.50;93.40;;;;;;5061004;28;20075;-76
2022/08/12 13:34:38;;;;;;;2.50;1.52;;;30.40;93.70;;;;;;5064129;28;20433;-77
2022/08/12 13:37:04;;;;;;;3.33;1.55;;;30.30;94.60;;;;;;5066242;28;20048;-77
2022/08/12 13:39:30;;;;;;;1.70;1.20;;;30.20;93.80;;;;;;5051087;28;20073;-77
2022/08/12 13:41:56;;;;;;;5.75;1.48;;;30.50;94.50;;;;;;5069028;28;20036;-78
2022/08/12 13:44:21;;;;;;;6.78;2.33;;;30.40;95.00;;;;;;5058428;28;20045;-77
2022/08/12 13:46:47;;;;;;;2.47;2.03;;;30.50;94.60;;;;;;5067518;28;20059;-77
2022/08/12 13:49:14;;;;;;;4.35;2.05;;;30.70;94.70;;;;;;5068411;28;20063;-78
2022/08/12 13:51:41;;;;;;;6.97;1.83;;;30.50;94.40;;;;;;5050640;28;20352;-76
2022/08/12 13:54:08;;;;;;;4.20;1.60;;;30.50;94.10;;;;;;5067461;28;20067;-77
2022/08/12 13:56:35;;;;;;;5.93;1.80;;;30.50;95.00;;;;;;5066282;28;20101;-76
2022/08/12 13:59:06;;;;;;;2.45;1.60;;;30.50;94.40;;;;;;5066942;28;20044;-76
2022/08/12 14:01:33;;;;;;;7.55;2.50;;;30.50;93.70;;;;;;5066747;28;20131;-76
2022/08/12 14:03:58;;;;;;;4.03;1.38;;;30.60;94.20;;;;;;5049742;28;20127;-76
2022/08/12 14:06:24;;;;;;;1.52;1.40;;;30.40;94.50;;;;;;5050205;28;20471;-77
2022/08/12 14:08:49;;;;;;;2.10;1.90;;;30.30;94.50;;;;;;5066259;28;20716;-76
2022/08/12 14:11:15;;;;;;;2.42;1.40;;;30.30;94.00;;;;;;5067933;28;20044;-76
2022/08/12 14:13:41;;;;;;;5.57;1.58;;;30.40;95.00;;;;;;5063047;28;20037;-76
2022/08/12 14:16:09;;;;;;;6.78;2.03;;;30.00;93.80;;;;;;5040315;28;20056;-77
2022/08/12 14:18:38;;;;;;;1.85;1.50;;;30.30;94.70;;;;;;5065613;28;20032;-77
2022/08/12 14:21:11;;;;;;;4.38;1.63;;;30.40;94.60;;;;;;5066992;28;20045;-77
2022/08/12 14:23:40;;;;;;;2.85;1.52;;;30.30;94.70;;;;;;5049159;28;20063;-77
2022/08/12 14:26:08;;;;;;;2.00;1.13;;;30.40;94.00;;;;;;5048580;28;20048;-77
2022/08/12 14:28:39;;;;;;;2.22;1.35;;;30.50;94.30;;;;;;5066543;28;20128;-77
2022/08/12 14:31:07;;;;;;;6.70;1.70;;;30.50;94.20;;;;;;5064679;28;20047;-77
2022/08/12 14:33:35;;;;;;;6.88;1.50;;;30.40;95.20;;;;;;5066563;28;20044;-77
2022/08/12 14:36:07;;;;;;;2.80;1.88;;;30.20;96.20;;;;;;5066952;28;20082;-77